Time;durP1;ratioP1;P1;durP2;ratioP2;P2;SDS_P1;SDS_P2;PMS_P1;PMS_P2;Temp;Humidity;BMP_temperature;BMP_pressure;BME280_temperature;BME280_humidity;BME280_pressure;Samples;Min_cycle;Max_cycle;Signal;HPM_P1;HPM_P2
2021/09/13 00:00:50;;;;;;;10.25;8.749999;;;;;;;13.55;97.38281;95351.48;;;;
2021/09/13 00:01:51;;;;;;;10.25;8.749999;;;;;;;13.55;97.38281;95351.48;;;;
2021/09/13 00:02:51;;;;;;;10.25;8.749999;;;;;;;13.55;97.38281;95351.48;;;;
2021/09/13 00:03:51;;;;;;;8.7;7.999999;;;;;;;13.45;97.80664;95355.55;;;;
2021/09/13 00:04:52;;;;;;;8.7;7.999999;;;;;;;13.45;97.80664;95355.55;;;;
2021/09/13 00:05:52;;;;;;;8.7;7.999999;;;;;;;13.45;97.80664;95355.55;;;;
2021/09/13 00:06:53;;;;;;;8.7;7.999999;;;;;;;13.45;97.80664;95355.55;;;;
2021/09/13 00:07:54;;;;;;;8.7;7.999999;;;;;;;13.45;97.80664;95355.55;;;;
2021/09/13 00:08:55;;;;;;;8.7;7.999999;;;;;;;13.45;97.80664;95355.55;;;;
2021/09/13 00:09:55;;;;;;;8.7;7.999999;;;;;;;13.45;97.80664;95355.55;;;;
2021/09/13 00:10:55;;;;;;;8.7;7.999999;;;;;;;13.45;97.80664;95355.55;;;;
2021/09/13 00:11:56;;;;;;;8.7;7.999999;;;;;;;13.45;97.80664;95355.55;;;;
2021/09/13 00:12:56;;;;;;;8.7;7.999999;;;;;;;13.45;97.80664;95355.55;;;;
2021/09/13 00:13:57;;;;;;;8.7;7.999999;;;;;;;13.45;97.80664;95355.55;;;;
2021/09/13 00:14:57;;;;;;;9.649999;8.6;;;;;;;13.36;98.19238;95356.11;;;;
2021/09/13 00:15:58;;;;;;;9.649999;8.6;;;;;;;13.36;98.19238;95356.11;;;;
2021/09/13 00:16:59;;;;;;;9.649999;8.6;;;;;;;13.36;98.19238;95356.11;;;;
2021/09/13 00:18:00;;;;;;;9.649999;8.6;;;;;;;13.36;98.19238;95356.11;;;;
2021/09/13 00:19:00;;;;;;;9.649999;8.6;;;;;;;13.36;98.19238;95356.11;;;;
2021/09/13 00:20:01;;;;;;;9.649999;8.6;;;;;;;13.36;98.19238;95356.11;;;;
2021/09/13 00:21:01;;;;;;;9.649999;8.6;;;;;;;13.36;98.19238;95356.11;;;;
2021/09/13 00:22:02;;;;;;;9.649999;8.6;;;;;;;13.36;98.19238;95356.11;;;;
2021/09/13 00:23:03;;;;;;;9.649999;8.6;;;;;;;13.36;98.19238;95356.11;;;;
2021/09/13 00:24:03;;;;;;;9.649999;8.6;;;;;;;13.36;98.19238;95356.11;;;;
2021/09/13 00:25:04;;;;;;;9.6;8.699999;;;;;;;13.39;98.5752;95360.08;;;;
2021/09/13 00:26:06;;;;;;;9.6;8.699999;;;;;;;13.39;98.5752;95360.08;;;;
2021/09/13 00:27:06;;;;;;;9.6;8.699999;;;;;;;13.39;98.5752;95360.08;;;;
2021/09/13 00:28:07;;;;;;;9.6;8.699999;;;;;;;13.39;98.5752;95360.08;;;;
2021/09/13 00:29:07;;;;;;;9.6;8.699999;;;;;;;13.39;98.5752;95360.08;;;;
2021/09/13 00:30:08;;;;;;;9.6;8.699999;;;;;;;13.39;98.5752;95360.08;;;;
2021/09/13 00:31:09;;;;;;;9.6;8.699999;;;;;;;13.39;98.5752;95360.08;;;;
2021/09/13 00:32:09;;;;;;;9.6;8.699999;;;;;;;13.39;98.5752;95360.08;;;;
2021/09/13 00:33:10;;;;;;;9.6;8.699999;;;;;;;13.39;98.5752;95360.08;;;;
2021/09/13 00:34:10;;;;;;;9.6;8.699999;;;;;;;13.39;98.5752;95360.08;;;;
2021/09/13 00:35:11;;;;;;;9.6;8.699999;;;;;;;13.39;98.5752;95360.08;;;;
2021/09/13 00:36:11;;;;;;;9.699999;8.900001;;;;;;;13.41;98.64551;95367.85;;;;
2021/09/13 00:37:12;;;;;;;9.699999;8.900001;;;;;;;13.41;98.64551;95367.85;;;;
2021/09/13 00:38:13;;;;;;;9.699999;8.900001;;;;;;;13.41;98.64551;95367.85;;;;
2021/09/13 00:39:13;;;;;;;9.699999;8.900001;;;;;;;13.41;98.64551;95367.85;;;;
2021/09/13 00:40:13;;;;;;;9.699999;8.900001;;;;;;;13.41;98.64551;95367.85;;;;
2021/09/13 00:41:14;;;;;;;9.699999;8.900001;;;;;;;13.41;98.64551;95367.85;;;;
2021/09/13 00:42:14;;;;;;;9.699999;8.900001;;;;;;;13.41;98.64551;95367.85;;;;
2021/09/13 00:43:16;;;;;;;9.699999;8.900001;;;;;;;13.41;98.64551;95367.85;;;;
2021/09/13 00:44:16;;;;;;;9.699999;8.900001;;;;;;;13.41;98.64551;95367.85;;;;
2021/09/13 00:45:17;;;;;;;9.699999;8.900001;;;;;;;13.41;98.64551;95367.85;;;;
2021/09/13 00:46:18;;;;;;;9.699999;8.900001;;;;;;;13.41;98.64551;95367.85;;;;
2021/09/13 00:47:18;;;;;;;9.4;8.550001;;;;;;;13.33;98.96875;95371.54;;;;
2021/09/13 00:48:19;;;;;;;9.4;8.550001;;;;;;;13.33;98.96875;95371.54;;;;
2021/09/13 00:49:20;;;;;;;9.4;8.550001;;;;;;;13.33;98.96875;95371.54;;;;
2021/09/13 00:50:20;;;;;;;9.4;8.550001;;;;;;;13.33;98.96875;95371.54;;;;
2021/09/13 00:51:21;;;;;;;9.4;8.550001;;;;;;;13.33;98.96875;95371.54;;;;
2021/09/13 00:52:22;;;;;;;9.4;8.550001;;;;;;;13.33;98.96875;95371.54;;;;
2021/09/13 00:53:22;;;;;;;9.4;8.550001;;;;;;;13.33;98.96875;95371.54;;;;
2021/09/13 00:54:23;;;;;;;9.4;8.550001;;;;;;;13.33;98.96875;95371.54;;;;
2021/09/13 00:55:23;;;;;;;9.4;8.550001;;;;;;;13.33;98.96875;95371.54;;;;
2021/09/13 00:56:24;;;;;;;9.4;8.550001;;;;;;;13.33;98.96875;95371.54;;;;
2021/09/13 00:57:25;;;;;;;8.550001;7.75;;;;;;;13.23;99.50098;95361.89;;;;
2021/09/13 00:58:26;;;;;;;8.550001;7.75;;;;;;;13.23;99.50098;95361.89;;;;
2021/09/13 00:59:28;;;;;;;8.550001;7.75;;;;;;;13.23;99.50098;95361.89;;;;
2021/09/13 01:00:28;;;;;;;8.550001;7.75;;;;;;;13.23;99.50098;95361.89;;;;
2021/09/13 01:01:29;;;;;;;8.550001;7.75;;;;;;;13.23;99.50098;95361.89;;;;
2021/09/13 01:02:29;;;;;;;8.550001;7.75;;;;;;;13.23;99.50098;95361.89;;;;
2021/09/13 01:03:30;;;;;;;8.550001;7.75;;;;;;;13.23;99.50098;95361.89;;;;
2021/09/13 01:04:30;;;;;;;8.550001;7.75;;;;;;;13.23;99.50098;95361.89;;;;
2021/09/13 01:05:31;;;;;;;8.550001;7.75;;;;;;;13.23;99.50098;95361.89;;;;
2021/09/13 01:06:31;;;;;;;8.550001;7.75;;;;;;;13.23;99.50098;95361.89;;;;
2021/09/13 01:07:32;;;;;;;8.550001;7.75;;;;;;;13.23;99.50098;95361.89;;;;
2021/09/13 01:08:33;;;;;;;9.700001;8.8;;;;;;;13.13;99.85156;95358.64;;;;
2021/09/13 01:09:34;;;;;;;9.700001;8.8;;;;;;;13.13;99.85156;95358.64;;;;
2021/09/13 01:10:34;;;;;;;9.700001;8.8;;;;;;;13.13;99.85156;95358.64;;;;
2021/09/13 01:11:35;;;;;;;9.700001;8.8;;;;;;;13.13;99.85156;95358.64;;;;
2021/09/13 01:12:36;;;;;;;9.700001;8.8;;;;;;;13.13;99.85156;95358.64;;;;
2021/09/13 01:13:36;;;;;;;9.700001;8.8;;;;;;;13.13;99.85156;95358.64;;;;
2021/09/13 01:14:37;;;;;;;9.700001;8.8;;;;;;;13.13;99.85156;95358.64;;;;
2021/09/13 01:15:40;;;;;;;9.700001;8.8;;;;;;;13.13;99.85156;95358.64;;;;
2021/09/13 01:16:42;;;;;;;9.700001;8.8;;;;;;;13.13;99.85156;95358.64;;;;
2021/09/13 01:17:42;;;;;;;9.700001;8.8;;;;;;;13.13;99.85156;95358.64;;;;
2021/09/13 01:18:43;;;;;;;9.1;8.299999;;;;;;;13.06;100;95357.44;;;;
2021/09/13 01:19:43;;;;;;;9.1;8.299999;;;;;;;13.06;100;95357.44;;;;
2021/09/13 01:20:44;;;;;;;9.1;8.299999;;;;;;;13.06;100;95357.44;;;;
2021/09/13 01:21:45;;;;;;;9.1;8.299999;;;;;;;13.06;100;95357.44;;;;
2021/09/13 01:22:46;;;;;;;9.1;8.299999;;;;;;;13.06;100;95357.44;;;;
2021/09/13 01:23:47;;;;;;;9.1;8.299999;;;;;;;13.06;100;95357.44;;;;
2021/09/13 01:24:47;;;;;;;9.1;8.299999;;;;;;;13.06;100;95357.44;;;;
2021/09/13 01:25:48;;;;;;;9.1;8.299999;;;;;;;13.06;100;95357.44;;;;
2021/09/13 01:26:49;;;;;;;9.1;8.299999;;;;;;;13.06;100;95357.44;;;;
2021/09/13 01:27:49;;;;;;;9.1;8.299999;;;;;;;13.06;100;95357.44;;;;
2021/09/13 01:28:49;;;;;;;9.1;8.299999;;;;;;;13.06;100;95357.44;;;;
2021/09/13 01:29:50;;;;;;;8.85;8.15;;;;;;;12.96;100;95363.51;;;;
2021/09/13 01:30:51;;;;;;;8.85;8.15;;;;;;;12.96;100;95363.51;;;;
2021/09/13 01:31:52;;;;;;;8.85;8.15;;;;;;;12.96;100;95363.51;;;;
2021/09/13 01:32:53;;;;;;;8.85;8.15;;;;;;;12.96;100;95363.51;;;;
2021/09/13 01:33:53;;;;;;;8.85;8.15;;;;;;;12.96;100;95363.51;;;;
2021/09/13 01:34:54;;;;;;;8.85;8.15;;;;;;;12.96;100;95363.51;;;;
2021/09/13 01:35:54;;;;;;;8.85;8.15;;;;;;;12.96;100;95363.51;;;;
2021/09/13 01:36:55;;;;;;;8.85;8.15;;;;;;;12.96;100;95363.51;;;;
2021/09/13 01:37:55;;;;;;;8.85;8.15;;;;;;;12.96;100;95363.51;;;;
2021/09/13 01:38:56;;;;;;;8.85;8.15;;;;;;;12.96;100;95363.51;;;;
2021/09/13 01:39:56;;;;;;;9.45;8.5;;;;;;;12.85;100;95369.96;;;;
2021/09/13 01:40:57;;;;;;;9.45;8.5;;;;;;;12.85;100;95369.96;;;;
2021/09/13 01:41:57;;;;;;;9.45;8.5;;;;;;;12.85;100;95369.96;;;;
2021/09/13 01:42:58;;;;;;;9.45;8.5;;;;;;;12.85;100;95369.96;;;;
2021/09/13 01:43:59;;;;;;;9.45;8.5;;;;;;;12.85;100;95369.96;;;;
2021/09/13 01:45:00;;;;;;;9.45;8.5;;;;;;;12.85;100;95369.96;;;;
2021/09/13 01:46:00;;;;;;;9.45;8.5;;;;;;;12.85;100;95369.96;;;;
2021/09/13 01:47:01;;;;;;;9.45;8.5;;;;;;;12.85;100;95369.96;;;;
2021/09/13 01:48:02;;;;;;;9.45;8.5;;;;;;;12.85;100;95369.96;;;;
2021/09/13 01:49:03;;;;;;;9.45;8.5;;;;;;;12.85;100;95369.96;;;;
2021/09/13 01:50:04;;;;;;;9.45;8.5;;;;;;;12.85;100;95369.96;;;;
2021/09/13 01:51:07;;;;;;;9.399999;8.399999;;;;;;;12.72;100;95362.05;;;;
2021/09/13 01:52:08;;;;;;;9.399999;8.399999;;;;;;;12.72;100;95362.05;;;;
2021/09/13 01:53:08;;;;;;;9.399999;8.399999;;;;;;;12.72;100;95362.05;;;;
2021/09/13 01:54:09;;;;;;;9.399999;8.399999;;;;;;;12.72;100;95362.05;;;;
2021/09/13 01:55:10;;;;;;;9.399999;8.399999;;;;;;;12.72;100;95362.05;;;;
2021/09/13 01:56:11;;;;;;;9.399999;8.399999;;;;;;;12.72;100;95362.05;;;;
2021/09/13 01:57:11;;;;;;;9.399999;8.399999;;;;;;;12.72;100;95362.05;;;;
2021/09/13 01:58:11;;;;;;;9.399999;8.399999;;;;;;;12.72;100;95362.05;;;;
2021/09/13 01:59:12;;;;;;;9.399999;8.399999;;;;;;;12.72;100;95362.05;;;;
2021/09/13 02:00:12;;;;;;;9.399999;8.399999;;;;;;;12.72;100;95362.05;;;;
2021/09/13 02:01:15;;;;;;;10.3;8.85;;;;;;;12.61;100;95351.18;;;;
2021/09/13 02:02:16;;;;;;;10.3;8.85;;;;;;;12.61;100;95351.18;;;;
2021/09/13 02:03:16;;;;;;;10.3;8.85;;;;;;;12.61;100;95351.18;;;;
2021/09/13 02:04:17;;;;;;;10.3;8.85;;;;;;;12.61;100;95351.18;;;;
2021/09/13 02:05:17;;;;;;;10.3;8.85;;;;;;;12.61;100;95351.18;;;;
2021/09/13 02:06:17;;;;;;;10.3;8.85;;;;;;;12.61;100;95351.18;;;;
2021/09/13 02:07:18;;;;;;;10.3;8.85;;;;;;;12.61;100;95351.18;;;;
2021/09/13 02:08:19;;;;;;;10.3;8.85;;;;;;;12.61;100;95351.18;;;;
2021/09/13 02:09:19;;;;;;;10.3;8.85;;;;;;;12.61;100;95351.18;;;;
2021/09/13 02:10:20;;;;;;;10.3;8.85;;;;;;;12.61;100;95351.18;;;;
2021/09/13 02:11:20;;;;;;;10.3;8.85;;;;;;;12.61;100;95351.18;;;;
2021/09/13 02:12:21;;;;;;;9.949999;8.799998;;;;;;;12.51;100;95344.25;;;;
2021/09/13 02:13:22;;;;;;;9.949999;8.799998;;;;;;;12.51;100;95344.25;;;;
2021/09/13 02:14:22;;;;;;;9.949999;8.799998;;;;;;;12.51;100;95344.25;;;;
2021/09/13 02:15:23;;;;;;;9.949999;8.799998;;;;;;;12.51;100;95344.25;;;;
2021/09/13 02:16:23;;;;;;;9.949999;8.799998;;;;;;;12.51;100;95344.25;;;;
2021/09/13 02:17:24;;;;;;;9.949999;8.799998;;;;;;;12.51;100;95344.25;;;;
2021/09/13 02:18:24;;;;;;;9.949999;8.799998;;;;;;;12.51;100;95344.25;;;;
2021/09/13 02:19:25;;;;;;;9.949999;8.799998;;;;;;;12.51;100;95344.25;;;;
2021/09/13 02:20:25;;;;;;;9.949999;8.799998;;;;;;;12.51;100;95344.25;;;;
2021/09/13 02:21:26;;;;;;;9.949999;8.799998;;;;;;;12.51;100;95344.25;;;;
2021/09/13 02:22:26;;;;;;;9.85;8.85;;;;;;;12.39;100;95347.55;;;;
2021/09/13 02:23:27;;;;;;;9.85;8.85;;;;;;;12.39;100;95347.55;;;;
2021/09/13 02:24:27;;;;;;;9.85;8.85;;;;;;;12.39;100;95347.55;;;;
2021/09/13 02:25:28;;;;;;;9.85;8.85;;;;;;;12.39;100;95347.55;;;;
2021/09/13 02:26:28;;;;;;;9.85;8.85;;;;;;;12.39;100;95347.55;;;;
2021/09/13 02:27:29;;;;;;;9.85;8.85;;;;;;;12.39;100;95347.55;;;;
2021/09/13 02:28:29;;;;;;;9.85;8.85;;;;;;;12.39;100;95347.55;;;;
2021/09/13 02:29:30;;;;;;;9.85;8.85;;;;;;;12.39;100;95347.55;;;;
2021/09/13 02:30:30;;;;;;;9.85;8.85;;;;;;;12.39;100;95347.55;;;;
2021/09/13 02:31:31;;;;;;;9.85;8.85;;;;;;;12.39;100;95347.55;;;;
2021/09/13 02:32:32;;;;;;;9.85;8.85;;;;;;;12.39;100;95347.55;;;;
2021/09/13 02:33:32;;;;;;;9.85;8.85;;;;;;;12.39;100;95347.55;;;;
2021/09/13 02:34:33;;;;;;;9.85;8.85;;;;;;;12.39;100;95347.55;;;;
2021/09/13 02:35:34;;;;;;;9.85;8.85;;;;;;;12.39;100;95347.55;;;;
2021/09/13 02:36:34;;;;;;;9.85;8.85;;;;;;;12.39;100;95347.55;;;;
2021/09/13 02:37:35;;;;;;;9.85;8.85;;;;;;;12.39;100;95347.55;;;;
2021/09/13 02:38:36;;;;;;;9.85;8.85;;;;;;;12.39;100;95347.55;;;;
2021/09/13 02:39:36;;;;;;;9.85;8.85;;;;;;;12.39;100;95347.55;;;;
2021/09/13 02:40:37;;;;;;;9.85;8.85;;;;;;;12.39;100;95347.55;;;;
2021/09/13 02:41:38;;;;;;;9.85;8.85;;;;;;;12.39;100;95347.55;;;;
2021/09/13 02:42:38;;;;;;;9.85;8.85;;;;;;;12.39;100;95347.55;;;;
2021/09/13 02:43:39;;;;;;;10.3;8.85;;;;;;;12.2;100;95342.61;;;;
2021/09/13 02:44:40;;;;;;;10.3;8.85;;;;;;;12.2;100;95342.61;;;;
2021/09/13 02:45:40;;;;;;;10.3;8.85;;;;;;;12.2;100;95342.61;;;;
2021/09/13 02:46:41;;;;;;;10.3;8.85;;;;;;;12.2;100;95342.61;;;;
2021/09/13 02:47:41;;;;;;;10.3;8.85;;;;;;;12.2;100;95342.61;;;;
2021/09/13 02:48:42;;;;;;;10.3;8.85;;;;;;;12.2;100;95342.61;;;;
2021/09/13 02:49:43;;;;;;;10.3;8.85;;;;;;;12.2;100;95342.61;;;;
2021/09/13 02:50:43;;;;;;;10.3;8.85;;;;;;;12.2;100;95342.61;;;;
2021/09/13 02:51:44;;;;;;;10.3;8.85;;;;;;;12.2;100;95342.61;;;;
2021/09/13 02:52:44;;;;;;;10.3;8.85;;;;;;;12.2;100;95342.61;;;;
2021/09/13 02:53:45;;;;;;;10.3;8.85;;;;;;;12.2;100;95342.61;;;;
2021/09/13 02:54:45;;;;;;;9.999998;9.1;;;;;;;12.18;100;95341.52;;;;
2021/09/13 02:55:46;;;;;;;9.999998;9.1;;;;;;;12.18;100;95341.52;;;;
2021/09/13 02:56:46;;;;;;;9.999998;9.1;;;;;;;12.18;100;95341.52;;;;
2021/09/13 02:57:47;;;;;;;9.999998;9.1;;;;;;;12.18;100;95341.52;;;;
2021/09/13 02:58:48;;;;;;;9.999998;9.1;;;;;;;12.18;100;95341.52;;;;
2021/09/13 02:59:48;;;;;;;9.999998;9.1;;;;;;;12.18;100;95341.52;;;;
2021/09/13 03:00:49;;;;;;;9.999998;9.1;;;;;;;12.18;100;95341.52;;;;
2021/09/13 03:01:49;;;;;;;9.999998;9.1;;;;;;;12.18;100;95341.52;;;;
2021/09/13 03:02:50;;;;;;;9.999998;9.1;;;;;;;12.18;100;95341.52;;;;
2021/09/13 03:03:50;;;;;;;9.999998;9.1;;;;;;;12.18;100;95341.52;;;;
2021/09/13 03:04:51;;;;;;;9.999998;9.1;;;;;;;12.18;100;95341.52;;;;
2021/09/13 03:05:52;;;;;;;11.9;10.8;;;;;;;12.22;100;95340.48;;;;
2021/09/13 03:06:52;;;;;;;11.9;10.8;;;;;;;12.22;100;95340.48;;;;
2021/09/13 03:07:53;;;;;;;11.9;10.8;;;;;;;12.22;100;95340.48;;;;
2021/09/13 03:08:53;;;;;;;11.9;10.8;;;;;;;12.22;100;95340.48;;;;
2021/09/13 03:09:54;;;;;;;11.9;10.8;;;;;;;12.22;100;95340.48;;;;
2021/09/13 03:10:54;;;;;;;11.9;10.8;;;;;;;12.22;100;95340.48;;;;
2021/09/13 03:11:54;;;;;;;11.9;10.8;;;;;;;12.22;100;95340.48;;;;
2021/09/13 03:12:55;;;;;;;11.9;10.8;;;;;;;12.22;100;95340.48;;;;
2021/09/13 03:13:56;;;;;;;11.9;10.8;;;;;;;12.22;100;95340.48;;;;
2021/09/13 03:14:57;;;;;;;11.9;10.8;;;;;;;12.22;100;95340.48;;;;
2021/09/13 03:15:57;;;;;;;11.1;10;;;;;;;12.23;100;95332.26;;;;
2021/09/13 03:16:58;;;;;;;11.1;10;;;;;;;12.23;100;95332.26;;;;
2021/09/13 03:17:58;;;;;;;11.1;10;;;;;;;12.23;100;95332.26;;;;
2021/09/13 03:18:59;;;;;;;11.1;10;;;;;;;12.23;100;95332.26;;;;
2021/09/13 03:19:59;;;;;;;11.1;10;;;;;;;12.23;100;95332.26;;;;
2021/09/13 03:21:00;;;;;;;11.1;10;;;;;;;12.23;100;95332.26;;;;
2021/09/13 03:22:00;;;;;;;11.1;10;;;;;;;12.23;100;95332.26;;;;
2021/09/13 03:23:01;;;;;;;11.1;10;;;;;;;12.23;100;95332.26;;;;
2021/09/13 03:24:02;;;;;;;11.1;10;;;;;;;12.23;100;95332.26;;;;
2021/09/13 03:25:03;;;;;;;11.1;10;;;;;;;12.23;100;95332.26;;;;
2021/09/13 03:26:05;;;;;;;11.1;10;;;;;;;12.23;100;95332.26;;;;
2021/09/13 03:27:05;;;;;;;11.8;10.6;;;;;;;12.18;100;95338.95;;;;
2021/09/13 03:28:06;;;;;;;11.8;10.6;;;;;;;12.18;100;95338.95;;;;
2021/09/13 03:29:06;;;;;;;11.8;10.6;;;;;;;12.18;100;95338.95;;;;
2021/09/13 03:30:07;;;;;;;11.8;10.6;;;;;;;12.18;100;95338.95;;;;
2021/09/13 03:31:09;;;;;;;11.8;10.6;;;;;;;12.18;100;95338.95;;;;
2021/09/13 03:32:09;;;;;;;11.8;10.6;;;;;;;12.18;100;95338.95;;;;
2021/09/13 03:33:10;;;;;;;11.8;10.6;;;;;;;12.18;100;95338.95;;;;
2021/09/13 03:34:10;;;;;;;11.8;10.6;;;;;;;12.18;100;95338.95;;;;
2021/09/13 03:35:11;;;;;;;11.8;10.6;;;;;;;12.18;100;95338.95;;;;
2021/09/13 03:36:11;;;;;;;11.8;10.6;;;;;;;12.18;100;95338.95;;;;
2021/09/13 03:37:12;;;;;;;11.1;10;;;;;;;12.11;100;95339.08;;;;
2021/09/13 03:38:12;;;;;;;11.1;10;;;;;;;12.11;100;95339.08;;;;
2021/09/13 03:39:13;;;;;;;11.1;10;;;;;;;12.11;100;95339.08;;;;
2021/09/13 03:40:14;;;;;;;11.1;10;;;;;;;12.11;100;95339.08;;;;
2021/09/13 03:41:15;;;;;;;11.1;10;;;;;;;12.11;100;95339.08;;;;
2021/09/13 03:42:15;;;;;;;11.1;10;;;;;;;12.11;100;95339.08;;;;
2021/09/13 03:43:16;;;;;;;11.1;10;;;;;;;12.11;100;95339.08;;;;
2021/09/13 03:44:16;;;;;;;11.1;10;;;;;;;12.11;100;95339.08;;;;
2021/09/13 03:45:17;;;;;;;11.1;10;;;;;;;12.11;100;95339.08;;;;
2021/09/13 03:46:17;;;;;;;11.1;10;;;;;;;12.11;100;95339.08;;;;
2021/09/13 03:47:18;;;;;;;11.1;10;;;;;;;12.11;100;95339.08;;;;
2021/09/13 03:48:20;;;;;;;10.3;9.4;;;;;;;12.01;100;95337.03;;;;
2021/09/13 03:49:21;;;;;;;10.3;9.4;;;;;;;12.01;100;95337.03;;;;
2021/09/13 03:50:22;;;;;;;10.3;9.4;;;;;;;12.01;100;95337.03;;;;
2021/09/13 03:51:22;;;;;;;10.3;9.4;;;;;;;12.01;100;95337.03;;;;
2021/09/13 03:52:23;;;;;;;10.3;9.4;;;;;;;12.01;100;95337.03;;;;
2021/09/13 03:53:23;;;;;;;10.3;9.4;;;;;;;12.01;100;95337.03;;;;
2021/09/13 03:54:24;;;;;;;10.3;9.4;;;;;;;12.01;100;95337.03;;;;
2021/09/13 03:55:24;;;;;;;10.3;9.4;;;;;;;12.01;100;95337.03;;;;
2021/09/13 03:56:25;;;;;;;10.3;9.4;;;;;;;12.01;100;95337.03;;;;
2021/09/13 03:57:25;;;;;;;10.3;9.4;;;;;;;12.01;100;95337.03;;;;
2021/09/13 03:58:26;;;;;;;11.3;10.15;;;;;;;11.94;100;95329.72;;;;
2021/09/13 03:59:26;;;;;;;11.3;10.15;;;;;;;11.94;100;95329.72;;;;
2021/09/13 04:00:27;;;;;;;11.3;10.15;;;;;;;11.94;100;95329.72;;;;
2021/09/13 04:01:27;;;;;;;11.3;10.15;;;;;;;11.94;100;95329.72;;;;
2021/09/13 04:02:29;;;;;;;11.3;10.15;;;;;;;11.94;100;95329.72;;;;
2021/09/13 04:03:33;;;;;;;11.3;10.15;;;;;;;11.94;100;95329.72;;;;
2021/09/13 04:04:35;;;;;;;11.3;10.15;;;;;;;11.94;100;95329.72;;;;
2021/09/13 04:05:42;;;;;;;11.3;10.15;;;;;;;11.94;100;95329.72;;;;
2021/09/13 04:06:46;;;;;;;11.3;10.15;;;;;;;11.94;100;95329.72;;;;
2021/09/13 04:08:06;;;;;;;11.3;10.15;;;;;;;11.94;100;95329.72;;;;
2021/09/13 04:09:42;;;;;;;10.95;9.950001;;;;;;;11.78;100;95327.66;;;;
2021/09/13 04:10:58;;;;;;;10.95;9.950001;;;;;;;11.78;100;95327.66;;;;
2021/09/13 04:11:59;;;;;;;10.95;9.950001;;;;;;;11.78;100;95327.66;;;;
2021/09/13 04:13:00;;;;;;;10.95;9.950001;;;;;;;11.78;100;95327.66;;;;
2021/09/13 04:14:00;;;;;;;10.95;9.950001;;;;;;;11.78;100;95327.66;;;;
2021/09/13 04:15:01;;;;;;;10.95;9.950001;;;;;;;11.78;100;95327.66;;;;
2021/09/13 04:16:01;;;;;;;10.95;9.950001;;;;;;;11.78;100;95327.66;;;;
2021/09/13 04:17:02;;;;;;;10.95;9.950001;;;;;;;11.78;100;95327.66;;;;
2021/09/13 04:18:02;;;;;;;10.95;9.950001;;;;;;;11.78;100;95327.66;;;;
2021/09/13 04:19:03;;;;;;;10.95;9.950001;;;;;;;11.78;100;95327.66;;;;
2021/09/13 04:20:04;;;;;;;11.7;10.6;;;;;;;11.71;100;95321.15;;;;
2021/09/13 04:21:05;;;;;;;11.7;10.6;;;;;;;11.71;100;95321.15;;;;
2021/09/13 04:22:06;;;;;;;11.7;10.6;;;;;;;11.71;100;95321.15;;;;
2021/09/13 04:23:06;;;;;;;11.7;10.6;;;;;;;11.71;100;95321.15;;;;
2021/09/13 04:24:07;;;;;;;11.7;10.6;;;;;;;11.71;100;95321.15;;;;
2021/09/13 04:25:07;;;;;;;11.7;10.6;;;;;;;11.71;100;95321.15;;;;
2021/09/13 04:26:08;;;;;;;11.7;10.6;;;;;;;11.71;100;95321.15;;;;
2021/09/13 04:27:09;;;;;;;11.7;10.6;;;;;;;11.71;100;95321.15;;;;
2021/09/13 04:28:09;;;;;;;11.7;10.6;;;;;;;11.71;100;95321.15;;;;
2021/09/13 04:29:10;;;;;;;11.7;10.6;;;;;;;11.71;100;95321.15;;;;
2021/09/13 04:30:10;;;;;;;11.7;10.6;;;;;;;11.71;100;95321.15;;;;
2021/09/13 04:31:11;;;;;;;11.25;10.1;;;;;;;11.67;100;95316.49;;;;
2021/09/13 04:32:12;;;;;;;11.25;10.1;;;;;;;11.67;100;95316.49;;;;
2021/09/13 04:33:13;;;;;;;11.25;10.1;;;;;;;11.67;100;95316.49;;;;
2021/09/13 04:34:13;;;;;;;11.25;10.1;;;;;;;11.67;100;95316.49;;;;
2021/09/13 04:35:14;;;;;;;11.25;10.1;;;;;;;11.67;100;95316.49;;;;
2021/09/13 04:36:14;;;;;;;11.25;10.1;;;;;;;11.67;100;95316.49;;;;
2021/09/13 04:37:15;;;;;;;11.25;10.1;;;;;;;11.67;100;95316.49;;;;
2021/09/13 04:38:16;;;;;;;11.25;10.1;;;;;;;11.67;100;95316.49;;;;
2021/09/13 04:39:17;;;;;;;11.25;10.1;;;;;;;11.67;100;95316.49;;;;
2021/09/13 04:40:17;;;;;;;11.25;10.1;;;;;;;11.67;100;95316.49;;;;
2021/09/13 04:41:18;;;;;;;11.35;10.3;;;;;;;11.63;100;95319.76;;;;
2021/09/13 04:42:18;;;;;;;11.35;10.3;;;;;;;11.63;100;95319.76;;;;
2021/09/13 04:43:19;;;;;;;11.35;10.3;;;;;;;11.63;100;95319.76;;;;
2021/09/13 04:44:19;;;;;;;11.35;10.3;;;;;;;11.63;100;95319.76;;;;
2021/09/13 04:45:20;;;;;;;11.35;10.3;;;;;;;11.63;100;95319.76;;;;
2021/09/13 04:46:20;;;;;;;11.35;10.3;;;;;;;11.63;100;95319.76;;;;
2021/09/13 04:47:21;;;;;;;11.35;10.3;;;;;;;11.63;100;95319.76;;;;
2021/09/13 04:48:21;;;;;;;11.35;10.3;;;;;;;11.63;100;95319.76;;;;
2021/09/13 04:49:24;;;;;;;11.35;10.3;;;;;;;11.63;100;95319.76;;;;
2021/09/13 04:50:25;;;;;;;11.35;10.3;;;;;;;11.63;100;95319.76;;;;
2021/09/13 04:51:27;;;;;;;11.35;10.3;;;;;;;11.63;100;95319.76;;;;
2021/09/13 04:52:27;;;;;;;13.05;11.75;;;;;;;11.61;100;95312.83;;;;
2021/09/13 04:53:28;;;;;;;13.05;11.75;;;;;;;11.61;100;95312.83;;;;
2021/09/13 04:54:28;;;;;;;13.05;11.75;;;;;;;11.61;100;95312.83;;;;
2021/09/13 04:55:29;;;;;;;13.05;11.75;;;;;;;11.61;100;95312.83;;;;
2021/09/13 04:56:29;;;;;;;13.05;11.75;;;;;;;11.61;100;95312.83;;;;
2021/09/13 04:57:30;;;;;;;13.05;11.75;;;;;;;11.61;100;95312.83;;;;
2021/09/13 04:58:31;;;;;;;13.05;11.75;;;;;;;11.61;100;95312.83;;;;
2021/09/13 04:59:31;;;;;;;13.05;11.75;;;;;;;11.61;100;95312.83;;;;
2021/09/13 05:00:32;;;;;;;13.05;11.75;;;;;;;11.61;100;95312.83;;;;
2021/09/13 05:01:32;;;;;;;13.05;11.75;;;;;;;11.61;100;95312.83;;;;
2021/09/13 05:02:33;;;;;;;13.95;12.45;;;;;;;11.62;100;95316.23;;;;
2021/09/13 05:03:33;;;;;;;13.95;12.45;;;;;;;11.62;100;95316.23;;;;
2021/09/13 05:04:34;;;;;;;13.95;12.45;;;;;;;11.62;100;95316.23;;;;
2021/09/13 05:05:34;;;;;;;13.95;12.45;;;;;;;11.62;100;95316.23;;;;
2021/09/13 05:06:35;;;;;;;13.95;12.45;;;;;;;11.62;100;95316.23;;;;
2021/09/13 05:07:36;;;;;;;13.95;12.45;;;;;;;11.62;100;95316.23;;;;
2021/09/13 05:08:37;;;;;;;13.95;12.45;;;;;;;11.62;100;95316.23;;;;
2021/09/13 05:09:37;;;;;;;13.95;12.45;;;;;;;11.62;100;95316.23;;;;
2021/09/13 05:10:38;;;;;;;13.95;12.45;;;;;;;11.62;100;95316.23;;;;
2021/09/13 05:11:39;;;;;;;13.95;12.45;;;;;;;11.62;100;95316.23;;;;
2021/09/13 05:12:40;;;;;;;13.95;12.45;;;;;;;11.62;100;95316.23;;;;
2021/09/13 05:13:40;;;;;;;13.15;11.75;;;;;;;11.7;100;95318.7;;;;
2021/09/13 05:14:41;;;;;;;13.15;11.75;;;;;;;11.7;100;95318.7;;;;
2021/09/13 05:15:41;;;;;;;13.15;11.75;;;;;;;11.7;100;95318.7;;;;
2021/09/13 05:16:42;;;;;;;13.15;11.75;;;;;;;11.7;100;95318.7;;;;
2021/09/13 05:17:42;;;;;;;13.15;11.75;;;;;;;11.7;100;95318.7;;;;
2021/09/13 05:18:45;;;;;;;13.15;11.75;;;;;;;11.7;100;95318.7;;;;
2021/09/13 05:19:45;;;;;;;13.15;11.75;;;;;;;11.7;100;95318.7;;;;
2021/09/13 05:20:46;;;;;;;13.15;11.75;;;;;;;11.7;100;95318.7;;;;
2021/09/13 05:21:46;;;;;;;13.15;11.75;;;;;;;11.7;100;95318.7;;;;
2021/09/13 05:22:47;;;;;;;13.15;11.75;;;;;;;11.7;100;95318.7;;;;
2021/09/13 05:23:47;;;;;;;13.3;11.85;;;;;;;11.81;100;95320.53;;;;
2021/09/13 05:24:48;;;;;;;13.3;11.85;;;;;;;11.81;100;95320.53;;;;
2021/09/13 05:25:48;;;;;;;13.3;11.85;;;;;;;11.81;100;95320.53;;;;
2021/09/13 05:26:49;;;;;;;13.3;11.85;;;;;;;11.81;100;95320.53;;;;
2021/09/13 05:27:49;;;;;;;13.3;11.85;;;;;;;11.81;100;95320.53;;;;
2021/09/13 05:28:50;;;;;;;13.3;11.85;;;;;;;11.81;100;95320.53;;;;
2021/09/13 05:29:50;;;;;;;13.3;11.85;;;;;;;11.81;100;95320.53;;;;
2021/09/13 05:30:51;;;;;;;13.3;11.85;;;;;;;11.81;100;95320.53;;;;
2021/09/13 05:31:53;;;;;;;13.3;11.85;;;;;;;11.81;100;95320.53;;;;
2021/09/13 05:32:53;;;;;;;13.3;11.85;;;;;;;11.81;100;95320.53;;;;
2021/09/13 05:33:54;;;;;;;13.3;11.85;;;;;;;11.81;100;95320.53;;;;
2021/09/13 05:34:54;;;;;;;15.05;13.25;;;;;;;11.94;100;95325.66;;;;
2021/09/13 05:35:55;;;;;;;15.05;13.25;;;;;;;11.94;100;95325.66;;;;
2021/09/13 05:36:55;;;;;;;15.05;13.25;;;;;;;11.94;100;95325.66;;;;
2021/09/13 05:37:56;;;;;;;15.05;13.25;;;;;;;11.94;100;95325.66;;;;
2021/09/13 05:38:56;;;;;;;15.05;13.25;;;;;;;11.94;100;95325.66;;;;
2021/09/13 05:39:58;;;;;;;15.05;13.25;;;;;;;11.94;100;95325.66;;;;
2021/09/13 05:40:59;;;;;;;15.05;13.25;;;;;;;11.94;100;95325.66;;;;
2021/09/13 05:41:59;;;;;;;15.05;13.25;;;;;;;11.94;100;95325.66;;;;
2021/09/13 05:43:02;;;;;;;15.05;13.25;;;;;;;11.94;100;95325.66;;;;
2021/09/13 05:44:04;;;;;;;15.05;13.25;;;;;;;11.94;100;95325.66;;;;
2021/09/13 05:45:04;;;;;;;15.05;13.25;;;;;;;11.94;100;95325.66;;;;
2021/09/13 05:46:05;;;;;;;14.8;13.3;;;;;;;12.26;100;95326.23;;;;
2021/09/13 05:47:06;;;;;;;14.8;13.3;;;;;;;12.26;100;95326.23;;;;
2021/09/13 05:48:07;;;;;;;14.8;13.3;;;;;;;12.26;100;95326.23;;;;
2021/09/13 05:49:10;;;;;;;14.8;13.3;;;;;;;12.26;100;95326.23;;;;
2021/09/13 05:50:11;;;;;;;14.8;13.3;;;;;;;12.26;100;95326.23;;;;
2021/09/13 05:51:11;;;;;;;14.8;13.3;;;;;;;12.26;100;95326.23;;;;
2021/09/13 05:52:12;;;;;;;14.8;13.3;;;;;;;12.26;100;95326.23;;;;
2021/09/13 05:53:12;;;;;;;14.8;13.3;;;;;;;12.26;100;95326.23;;;;
2021/09/13 05:54:13;;;;;;;14.8;13.3;;;;;;;12.26;100;95326.23;;;;
2021/09/13 05:55:14;;;;;;;14.8;13.3;;;;;;;12.26;100;95326.23;;;;